createdAt,value
2022-09-05T00:00:11.689Z,100223.28
2022-09-05T00:03:03.968Z,100242.66
2022-09-05T00:05:33.439Z,100244.41
2022-09-05T00:08:41.042Z,100246.63
2022-09-05T00:11:43.280Z,100243.53
2022-09-05T00:15:14.689Z,100247.03
2022-09-05T00:18:07.911Z,100237.81
2022-09-05T00:24:30.072Z,100248.44
2022-09-05T00:24:37.273Z,100245.19
2022-09-05T00:27:19.739Z,100240.84
2022-09-05T00:31:07.223Z,100238.19
2022-09-05T00:33:00.106Z,100241.09
2022-09-05T00:35:26.882Z,100237.56
2022-09-05T00:37:54.454Z,100207.09
2022-09-05T00:40:37.988Z,100237.28
2022-09-05T00:43:10.008Z,100235.69
2022-09-05T00:45:47.641Z,100202.59
2022-09-05T00:48:28.591Z,100238.53
2022-09-05T00:51:01.293Z,100238.94
2022-09-05T00:53:46.565Z,100241.81
2022-09-05T00:56:22.265Z,100236.09
2022-09-05T00:59:26.583Z,100231.38
2022-09-05T01:02:23.103Z,100213.50
2022-09-05T01:05:31.427Z,100204.78
2022-09-05T01:08:13.426Z,100216.13
2022-09-05T01:10:46.363Z,100219.19
2022-09-05T01:13:31.584Z,100218.16
2022-09-05T01:16:24.263Z,100211.81
2022-09-05T01:18:59.311Z,100224.34
2022-09-05T01:21:57.912Z,100223.16
2022-09-05T01:24:46.433Z,100227.28
2022-09-05T01:27:54.660Z,100238.97
2022-09-05T01:30:55.508Z,100235.31
2022-09-05T01:33:38.211Z,100207.38
2022-09-05T01:36:28.529Z,100217.66
2022-09-05T01:40:11.130Z,100215.75
2022-09-05T01:42:24.922Z,100223.78
2022-09-05T01:45:29.452Z,100216.78
2022-09-05T01:48:30.252Z,100218.59
2022-09-05T01:51:28.231Z,100208.13
2022-09-05T01:54:05.264Z,100206.66
2022-09-05T01:56:39.443Z,100196.38
2022-09-05T01:59:09.082Z,100202.53
2022-09-05T02:02:00.460Z,100210.13
2022-09-05T02:05:47.198Z,100204.16
2022-09-05T02:08:26.539Z,100210.53
2022-09-05T02:10:53.147Z,100216.97
2022-09-05T02:13:49.568Z,100200.97
2022-09-05T02:16:54.748Z,100210.03
2022-09-05T02:19:31.546Z,100199.31
2022-09-05T02:22:02.520Z,100197.91
2022-09-05T02:24:43.131Z,100204.47
2022-09-05T02:28:01.891Z,100212.91
2022-09-05T02:30:12.962Z,100217.41
2022-09-05T02:33:21.549Z,100217.41
2022-09-05T02:36:13.100Z,100219.84
2022-09-05T02:42:43.452Z,100217.59
2022-09-05T02:45:10.558Z,100197.69
2022-09-05T02:45:26.554Z,100203.88
2022-09-05T02:48:27.673Z,100202.25
2022-09-05T02:57:27.323Z,100203.88
2022-09-05T02:57:46.249Z,100214.34
2022-09-05T02:58:06.215Z,100209.41
2022-09-05T03:00:24.272Z,100176.50
2022-09-05T03:03:12.023Z,100207.97
2022-09-05T03:05:46.513Z,100199.31
2022-09-05T03:08:44.145Z,100204.25
2022-09-05T03:11:38.430Z,100216.16
2022-09-05T03:14:41.610Z,100196.66
2022-09-05T03:17:33.172Z,100218.69
2022-09-05T03:20:08.798Z,100215.16
2022-09-05T03:23:20.706Z,100221.75
2022-09-05T03:26:05.613Z,100220.09
2022-09-05T03:29:08.950Z,100221.13
2022-09-05T03:31:54.078Z,100223.75
2022-09-05T03:35:11.904Z,100152.06
2022-09-05T03:37:56.652Z,100219.84
2022-09-05T03:41:01.032Z,100219.50
2022-09-05T03:43:53.590Z,100223.41
2022-09-05T03:46:32.959Z,100188.44
2022-09-05T03:54:32.371Z,100217.03
2022-09-05T03:57:07.377Z,100218.66
2022-09-05T03:57:23.883Z,100200.97
2022-09-05T03:59:12.423Z,100223.75
2022-09-05T04:02:57.976Z,100226.41
2022-09-05T04:08:07.619Z,100224.53
2022-09-05T04:08:17.616Z,100229.25
2022-09-05T04:10:37.069Z,100225.19
2022-09-05T04:13:14.780Z,100213.91
2022-09-05T04:15:48.703Z,100196.44
2022-09-05T04:18:33.164Z,100201.78
2022-09-05T04:21:29.171Z,100215.34
2022-09-05T04:24:43.818Z,100214.34
2022-09-05T04:27:27.921Z,100194.38
2022-09-05T04:30:01.764Z,100220.31
2022-09-05T04:32:56.840Z,100210.22
2022-09-05T04:35:39.337Z,100196.44
2022-09-05T04:38:11.344Z,100214.34
2022-09-05T04:40:49.520Z,100213.13
2022-09-05T04:43:25.375Z,100232.63
2022-09-05T04:46:25.423Z,100229.13
2022-09-05T04:48:55.109Z,100229.31
2022-09-05T04:52:01.047Z,100222.56
2022-09-05T04:54:50.083Z,100238.78
2022-09-05T04:57:39.886Z,100236.75
2022-09-05T05:06:00.031Z,100247.41
2022-09-05T05:06:12.752Z,100223.53
2022-09-05T05:06:13.107Z,100248.41
2022-09-05T05:08:46.672Z,100222.09
2022-09-05T05:15:10.118Z,100241.03
2022-09-05T05:17:57.927Z,100227.88
2022-09-05T05:18:07.943Z,100254.84
2022-09-05T05:20:41.748Z,100233.84
2022-09-05T05:23:09.688Z,100235.47
2022-09-05T05:25:55.244Z,100257.00
2022-09-05T05:28:47.763Z,100265.88
2022-09-05T05:31:33.721Z,100248.06
2022-09-05T05:34:12.988Z,100242.09
2022-09-05T05:37:00.948Z,100228.53
2022-09-05T05:39:30.121Z,100265.53
2022-09-05T05:41:58.523Z,100281.13
2022-09-05T05:44:31.633Z,100251.09
2022-09-05T05:47:26.805Z,100274.84
2022-09-05T05:50:01.790Z,100274.06
2022-09-05T05:52:46.396Z,100227.25
2022-09-05T05:55:52.392Z,100275.94
2022-09-05T05:58:34.893Z,100285.22
2022-09-05T06:01:21.930Z,100285.59
2022-09-05T06:04:44.810Z,100274.03
2022-09-05T06:08:07.509Z,100279.81
2022-09-05T06:15:01.180Z,100278.59
2022-09-05T06:15:06.394Z,100216.94
2022-09-05T06:17:09.928Z,100276.22
2022-09-05T06:22:04.922Z,100281.69
2022-09-05T06:23:10.608Z,100274.19
2022-09-05T06:26:33.415Z,100276.06
2022-09-05T06:29:03.220Z,100273.03
2022-09-05T06:31:54.541Z,100269.81
2022-09-05T06:34:35.297Z,100237.16
2022-09-05T06:37:25.312Z,100259.28
2022-09-05T06:40:21.170Z,100265.91
2022-09-05T06:43:21.992Z,100258.03
2022-09-05T06:47:22.494Z,100263.97
2022-09-05T06:49:49.224Z,100263.06
2022-09-05T06:52:28.966Z,100265.22
2022-09-05T06:55:21.398Z,100253.91
2022-09-05T06:58:19.106Z,100255.75
2022-09-05T07:00:51.617Z,100229.72
2022-09-05T07:03:47.390Z,100267.59
2022-09-05T07:07:02.227Z,100262.03
2022-09-05T07:09:54.126Z,100267.25
2022-09-05T07:12:30.417Z,100270.75
2022-09-05T07:15:20.768Z,100264.91
2022-09-05T07:18:09.936Z,100207.56
2022-09-05T07:21:15.823Z,100261.84
2022-09-05T07:24:10.229Z,100261.63
2022-09-05T07:26:53.907Z,100239.84
2022-09-05T07:29:32.557Z,100235.44
2022-09-05T07:32:02.037Z,100244.59
2022-09-05T07:34:31.580Z,100272.00
2022-09-05T07:37:14.732Z,100270.72
2022-09-05T07:39:55.638Z,100248.97
2022-09-05T07:42:29.793Z,100244.31
2022-09-05T07:45:06.444Z,100269.53
2022-09-05T07:47:38.725Z,100238.56
2022-09-05T07:52:15.616Z,100248.28
2022-09-05T07:56:51.982Z,100272.53
2022-09-05T07:56:54.387Z,100256.81
2022-09-05T07:58:54.166Z,100249.88
2022-09-05T08:01:22.836Z,100261.63
2022-09-05T08:03:56.023Z,100251.88
2022-09-05T08:07:11.913Z,100253.13
2022-09-05T08:10:05.181Z,100209.59
2022-09-05T08:12:16.036Z,100248.91
2022-09-05T08:15:04.863Z,100273.31
2022-09-05T08:17:33.812Z,100273.94
2022-09-05T08:20:19.002Z,100267.06
2022-09-05T08:23:19.155Z,100263.78
2022-09-05T08:25:57.557Z,100263.03
2022-09-05T08:28:35.382Z,100236.88
2022-09-05T08:31:14.379Z,100243.50
2022-09-05T08:33:43.341Z,100200.00
2022-09-05T08:36:47.935Z,100232.19
2022-09-05T08:39:25.588Z,100254.03
2022-09-05T08:42:14.081Z,100248.69
2022-09-05T08:46:43.591Z,100246.41
2022-09-05T08:48:31.894Z,100250.84
2022-09-05T08:51:17.228Z,100245.41
2022-09-05T08:53:47.207Z,100244.34
2022-09-05T08:56:49.180Z,100237.50
2022-09-05T08:59:33.376Z,100238.88
2022-09-05T09:02:47.333Z,100240.41
2022-09-05T09:06:15.772Z,100248.16
2022-09-05T09:08:55.397Z,100248.81
2022-09-05T09:11:37.113Z,100244.88
2022-09-05T09:14:43.637Z,100243.06
2022-09-05T09:17:45.564Z,100247.22
2022-09-05T09:20:47.076Z,100243.44
2022-09-05T09:23:32.214Z,100211.41
2022-09-05T09:26:11.123Z,100232.03
2022-09-05T09:28:50.572Z,100211.31
2022-09-05T09:31:30.098Z,100219.91
2022-09-05T09:34:02.970Z,100208.56
2022-09-05T09:36:48.075Z,100214.03
2022-09-05T09:39:38.231Z,100164.03
2022-09-05T09:42:34.251Z,100217.09
2022-09-05T09:45:33.316Z,100220.47
2022-09-05T09:48:37.556Z,100216.75
2022-09-05T09:51:22.835Z,100225.13
2022-09-05T09:53:52.369Z,100227.88
2022-09-05T09:56:40.210Z,100230.94
2022-09-05T09:59:54.803Z,100225.28
2022-09-05T10:04:55.565Z,100216.41
2022-09-05T10:10:46.660Z,100194.78
2022-09-05T10:10:54.213Z,100226.66
2022-09-05T10:12:14.423Z,100219.41
2022-09-05T10:14:55.529Z,100168.78
2022-09-05T10:17:24.860Z,100216.78
2022-09-05T10:20:15.038Z,100222.84
2022-09-05T10:23:07.456Z,100218.16
2022-09-05T10:26:05.016Z,100206.13
2022-09-05T10:28:43.808Z,100204.41
2022-09-05T10:33:05.313Z,100209.53
2022-09-05T10:35:19.763Z,100201.72
2022-09-05T10:37:12.367Z,100201.66
2022-09-05T10:39:45.443Z,100185.94
2022-09-05T10:42:31.736Z,100195.63
2022-09-05T10:45:05.022Z,100158.03
2022-09-05T10:47:44.249Z,100173.66
2022-09-05T10:50:26.407Z,100165.50
2022-09-05T10:53:22.337Z,100171.81
2022-09-05T10:56:01.753Z,100142.72
2022-09-05T11:02:23.254Z,100143.09
2022-09-05T11:02:28.058Z,100150.25
2022-09-05T11:04:55.099Z,100140.81
2022-09-05T11:07:41.654Z,100126.16
2022-09-05T11:10:44.669Z,100128.97
2022-09-05T11:13:15.421Z,100122.47
2022-09-05T11:16:20.406Z,100119.66
2022-09-05T11:19:12.971Z,100107.50
2022-09-05T11:22:06.509Z,100120.69
2022-09-05T11:24:59.754Z,100115.47
2022-09-05T11:27:44.557Z,100111.03
2022-09-05T11:30:30.310Z,100084.47
2022-09-05T11:39:47.375Z,100106.00
2022-09-05T11:39:56.619Z,100091.00
2022-09-05T11:40:06.815Z,100083.16
2022-09-05T11:42:34.053Z,100100.22
2022-09-05T11:45:30.882Z,100097.28
2022-09-05T11:48:53.131Z,100099.16
2022-09-05T11:51:54.529Z,100101.03
2022-09-05T11:54:30.339Z,100092.97
2022-09-05T11:57:33.330Z,100091.50
2022-09-05T12:00:32.757Z,100081.34
2022-09-05T12:03:38.524Z,100082.38
2022-09-05T12:06:13.654Z,100085.69
2022-09-05T12:09:03.661Z,100034.47
2022-09-05T12:12:01.356Z,100074.69
2022-09-05T12:14:30.785Z,100076.53
2022-09-05T12:17:10.070Z,100077.03
2022-09-05T12:19:59.344Z,100066.94
2022-09-05T12:22:37.364Z,100060.47
2022-09-05T12:27:40.163Z,100048.16
2022-09-05T12:29:26.533Z,100050.19
2022-09-05T12:32:36.532Z,100057.53
2022-09-05T12:36:13.213Z,100055.47
2022-09-05T12:40:54.997Z,100045.28
2022-09-05T12:41:44.465Z,100034.16
2022-09-05T12:44:38.598Z,100032.25
2022-09-05T12:47:00.162Z,100043.09
2022-09-05T12:50:02.893Z,100012.59
2022-09-05T12:52:33.660Z,100025.91
2022-09-05T12:55:28.772Z,100028.19
2022-09-05T13:02:59.030Z,100003.94
2022-09-05T13:03:05.715Z,100023.81
2022-09-05T13:04:13.324Z,100002.72
2022-09-05T13:06:41.555Z,100023.09
2022-09-05T13:09:16.555Z,100012.25
2022-09-05T13:14:50.670Z,100018.84
2022-09-05T13:15:22.902Z,100011.38
2022-09-05T13:18:11.832Z,100000.72
2022-09-05T13:20:49.098Z,99962.59
2022-09-05T13:23:26.861Z,99994.25
2022-09-05T13:25:58.474Z,99972.88
2022-09-05T13:28:52.018Z,99987.47
2022-09-05T13:37:57.930Z,100003.69
2022-09-05T13:38:15.620Z,100007.50
2022-09-05T13:38:29.398Z,99990.06
2022-09-05T13:40:50.120Z,99997.03
2022-09-05T13:43:26.562Z,99993.31
2022-09-05T13:46:15.459Z,99971.41
2022-09-05T13:51:44.410Z,99975.03
2022-09-05T13:54:33.969Z,99982.22
2022-09-05T13:57:31.883Z,99982.03
2022-09-05T14:00:43.196Z,99979.63
2022-09-05T14:03:40.482Z,99974.38
2022-09-05T14:06:45.127Z,99969.69
2022-09-05T14:09:41.226Z,99968.34
2022-09-05T14:12:47.563Z,99968.81
2022-09-05T14:15:30.278Z,99976.25
2022-09-05T14:18:19.964Z,99960.88
2022-09-05T14:21:15.750Z,99933.06
2022-09-05T14:24:12.783Z,99963.63
2022-09-05T14:26:49.138Z,99955.56
2022-09-05T14:29:21.797Z,99954.00
2022-09-05T14:37:36.917Z,99951.22
2022-09-05T14:37:45.593Z,99931.72
2022-09-05T14:38:32.690Z,99950.31
2022-09-05T14:41:11.785Z,99944.78
2022-09-05T14:43:41.664Z,99945.09
2022-09-05T14:46:30.467Z,99945.59
2022-09-05T14:49:07.431Z,99951.75
2022-09-05T14:51:39.229Z,99956.75
2022-09-05T15:01:24.967Z,99938.81
2022-09-05T15:02:43.608Z,99907.38
2022-09-05T15:03:08.621Z,99934.31
2022-09-05T15:05:41.066Z,99931.91
2022-09-05T15:08:30.567Z,99930.75
2022-09-05T15:12:17.315Z,99903.03
2022-09-05T15:14:18.578Z,99927.25
2022-09-05T15:16:58.262Z,99933.34
2022-09-05T15:20:06.637Z,99933.88
2022-09-05T15:22:41.775Z,99923.41
2022-09-05T15:25:21.639Z,99922.81
2022-09-05T15:27:49.955Z,99891.38
2022-09-05T15:30:36.082Z,99894.22
2022-09-05T15:33:17.113Z,99907.47
2022-09-05T15:35:45.535Z,99898.38
2022-09-05T15:38:24.578Z,99903.00
2022-09-05T15:41:23.574Z,99902.09
2022-09-05T15:43:58.170Z,99897.78
2022-09-05T15:46:35.626Z,99903.00
2022-09-05T15:49:04.052Z,99902.19
2022-09-05T15:51:46.839Z,99894.19
2022-09-05T15:54:33.868Z,99896.50
2022-09-05T15:57:17.886Z,99900.34
2022-09-05T15:59:48.905Z,99868.22
2022-09-05T16:02:20.767Z,99887.38
2022-09-05T16:10:27.679Z,99886.22
2022-09-05T16:10:38.968Z,99876.81
2022-09-05T16:12:07.754Z,99894.53
2022-09-05T16:14:36.524Z,99831.19
2022-09-05T16:23:17.262Z,99881.38
2022-09-05T16:23:30.680Z,99877.38
2022-09-05T16:23:48.643Z,99872.81
2022-09-05T16:26:19.107Z,99876.16
2022-09-05T16:29:05.667Z,99834.63
2022-09-05T16:31:43.062Z,99872.63
2022-09-05T16:34:22.980Z,99871.47
2022-09-05T16:37:08.494Z,99832.03
2022-09-05T16:39:41.724Z,99857.22
2022-09-05T16:42:24.002Z,99838.41
2022-09-05T16:45:11.508Z,99845.53
2022-09-05T16:47:47.444Z,99861.03
2022-09-05T16:50:34.159Z,99855.59
2022-09-05T16:53:01.468Z,99846.53
2022-09-05T16:55:41.060Z,99845.81
2022-09-05T16:58:21.964Z,99796.59
2022-09-05T17:01:17.930Z,99844.50
2022-09-05T17:04:07.997Z,99836.81
2022-09-05T17:06:57.559Z,99847.81
2022-09-05T17:09:27.688Z,99843.91
2022-09-05T17:12:00.627Z,99847.94
2022-09-05T17:14:40.967Z,99834.06
2022-09-05T17:18:19.908Z,99824.44
2022-09-05T17:20:38.276Z,99830.72
2022-09-05T17:29:25.188Z,99843.66
2022-09-05T17:29:31.059Z,99824.94
2022-09-05T17:29:34.295Z,99851.41
2022-09-05T17:31:57.756Z,99831.22
2022-09-05T17:34:58.699Z,99837.53
2022-09-05T17:37:53.496Z,99841.19
2022-09-05T17:40:44.710Z,99844.63
2022-09-05T17:43:28.580Z,99836.38
2022-09-05T17:46:14.296Z,99844.25
2022-09-05T17:49:17.526Z,99851.22
2022-09-05T17:51:41.910Z,99851.56
2022-09-05T17:54:27.929Z,99776.19
2022-09-05T17:56:54.697Z,99827.84
2022-09-05T17:59:22.092Z,99853.72
2022-09-05T18:02:03.828Z,99852.53
2022-09-05T18:04:39.775Z,99867.91
2022-09-05T18:07:30.995Z,99866.75
2022-09-05T18:10:14.936Z,99860.63
2022-09-05T18:13:31.539Z,99851.53
2022-09-05T18:15:36.102Z,99872.44
2022-09-05T18:18:10.786Z,99853.00
2022-09-05T18:21:21.593Z,99842.22
2022-09-05T18:23:58.077Z,99869.31
2022-09-05T18:26:37.236Z,99876.59
2022-09-05T18:29:16.117Z,99887.41
2022-09-05T18:31:43.492Z,99889.31
2022-09-05T18:34:18.826Z,99889.03
2022-09-05T18:36:53.547Z,99882.75
2022-09-05T18:39:25.575Z,99904.13
2022-09-05T18:42:33.722Z,99894.88
2022-09-05T18:45:15.253Z,99885.59
2022-09-05T18:47:57.088Z,99882.84
2022-09-05T18:50:32.536Z,99875.16
2022-09-05T18:53:10.585Z,99903.56
2022-09-05T18:56:31.241Z,99903.78
2022-09-05T18:59:16.405Z,99910.63
2022-09-05T19:01:52.049Z,99895.88
2022-09-05T19:04:41.577Z,99914.25
2022-09-05T19:07:13.985Z,99877.88
2022-09-05T19:10:35.000Z,99866.69
2022-09-05T19:13:08.302Z,99905.53
2022-09-05T19:16:42.485Z,99870.28
2022-09-05T19:19:19.322Z,99886.16
2022-09-05T19:22:37.370Z,99888.00
2022-09-05T19:24:46.302Z,99912.94
2022-09-05T19:28:33.661Z,99907.75
2022-09-05T19:36:59.163Z,99878.53
2022-09-05T19:37:05.925Z,99909.63
2022-09-05T19:37:08.196Z,99915.63
2022-09-05T19:41:12.024Z,99913.69
2022-09-05T19:47:30.549Z,99908.63
2022-09-05T19:47:42.806Z,99902.94
2022-09-05T19:47:55.832Z,99905.25
2022-09-05T19:50:13.700Z,99903.66
2022-09-05T19:52:40.932Z,99828.97
2022-09-05T19:55:20.557Z,99883.22
2022-09-05T19:58:18.421Z,99876.66
2022-09-05T20:00:39.190Z,99852.91
2022-09-05T20:03:06.240Z,99843.06
2022-09-05T20:05:33.733Z,99883.75
2022-09-05T20:08:02.030Z,99889.06
2022-09-05T20:10:32.513Z,99880.91
2022-09-05T20:12:59.797Z,99862.84
2022-09-05T20:15:36.378Z,99881.28
2022-09-05T20:18:33.885Z,99864.16
2022-09-05T20:21:16.271Z,99870.06
2022-09-05T20:23:49.361Z,99874.66
2022-09-05T20:26:21.078Z,99869.41
2022-09-05T20:28:54.695Z,99839.63
2022-09-05T20:31:27.432Z,99834.59
2022-09-05T20:34:00.727Z,99872.56
2022-09-05T20:43:17.392Z,99843.81
2022-09-05T20:43:24.590Z,99870.44
2022-09-05T20:43:31.859Z,99883.25
2022-09-05T20:45:44.693Z,99888.66
2022-09-05T20:54:08.975Z,99883.28
2022-09-05T20:54:13.191Z,99891.31
2022-09-05T20:54:27.282Z,99875.00
2022-09-05T20:56:36.021Z,99911.13
2022-09-05T20:59:02.902Z,99901.88
2022-09-05T21:01:32.512Z,99913.47
2022-09-05T21:04:02.008Z,99898.06
2022-09-05T21:06:33.205Z,99876.84
2022-09-05T21:09:57.801Z,99877.66
2022-09-05T21:12:28.719Z,99907.19
2022-09-05T21:15:26.999Z,99908.03
2022-09-05T21:18:18.390Z,99896.66
2022-09-05T21:20:56.749Z,99866.81
2022-09-05T21:23:38.445Z,99905.34
2022-09-05T21:26:21.312Z,99902.09
2022-09-05T21:29:11.322Z,99902.09
2022-09-05T21:31:42.524Z,99899.84
2022-09-05T21:34:20.299Z,99887.84
2022-09-05T21:36:49.907Z,99870.47
2022-09-05T21:39:34.842Z,99857.63
2022-09-05T21:42:15.619Z,99895.16
2022-09-05T21:47:40.635Z,99877.34
2022-09-05T21:47:52.503Z,99844.03
2022-09-05T21:50:30.799Z,99826.75
2022-09-05T21:54:19.063Z,99884.34
2022-09-05T21:59:22.793Z,99852.50
2022-09-05T21:59:27.563Z,99875.91
2022-09-05T22:01:44.902Z,99875.06
2022-09-05T22:04:17.505Z,99841.25
2022-09-05T22:06:48.813Z,99885.25
2022-09-05T22:09:25.891Z,99886.63
2022-09-05T22:11:52.804Z,99854.19
2022-09-05T22:14:21.393Z,99879.53
2022-09-05T22:16:50.723Z,99873.47
2022-09-05T22:19:22.823Z,99877.22
2022-09-05T22:22:15.691Z,99871.84
2022-09-05T22:24:52.114Z,99874.44
2022-09-05T22:27:20.947Z,99873.44
2022-09-05T22:29:50.560Z,99876.38
2022-09-05T22:32:18.957Z,99814.75
2022-09-05T22:35:27.653Z,99838.19
2022-09-05T22:37:49.443Z,99795.50
2022-09-05T22:40:26.451Z,99827.72
2022-09-05T22:43:01.145Z,99854.78
2022-09-05T22:45:29.324Z,99853.50
2022-09-05T22:47:56.491Z,99863.66
2022-09-05T22:50:56.006Z,99855.25
2022-09-05T22:53:22.719Z,99851.38
2022-09-05T22:55:58.120Z,99872.31
2022-09-05T22:58:25.608Z,99868.81
2022-09-05T23:00:53.052Z,99865.06
2022-09-05T23:03:20.080Z,99839.59
2022-09-05T23:05:46.982Z,99818.16
2022-09-05T23:08:14.353Z,99854.88
2022-09-05T23:10:41.220Z,99847.56
2022-09-05T23:13:09.818Z,99839.81
2022-09-05T23:15:37.505Z,99833.41
2022-09-05T23:18:05.103Z,99858.81
2022-09-05T23:20:32.609Z,99857.09
2022-09-05T23:23:03.482Z,99852.91
2022-09-05T23:25:30.553Z,99829.00
2022-09-05T23:27:57.223Z,99821.53
2022-09-05T23:30:23.961Z,99854.88
2022-09-05T23:32:52.040Z,99799.34
2022-09-05T23:35:19.373Z,99860.22
2022-09-05T23:37:47.045Z,99853.91
2022-09-05T23:40:16.657Z,99818.81
2022-09-05T23:43:04.231Z,99845.38
2022-09-05T23:45:31.167Z,99806.78
2022-09-05T23:47:58.538Z,99832.34
2022-09-05T23:50:28.291Z,99842.25
2022-09-05T23:52:55.019Z,99818.34
2022-09-05T23:55:23.271Z,99849.84
2022-09-05T23:57:49.889Z,99838.06
